In Rescue
 
Open Full Screen Window  High Contrast Mode
Wind Gusting 00 knots
08
October 25, 2021 4:30 PM EDT
Weather Information
Wind Direction
  020 °
Wind Speed
  08 kt (9 mph)
Wind Gust
  00 kt (0 mph)
Altimeter
30.04 in
Visibility
10 SM
Temperature
07° C
45° F
Dewpoint
03° C
37° F
Humidity
76%
Sky Condition
Overcast @ 3,800 ft
Broken @ 3,200 ft
VFR

METAR KMGN 252030Z AUTO 02008KT 10SM BKN032 OVC038 07/03 A3004 RMK AO2 T00800032

FAA Disclaimer: The data displayed is for advisory purposes only and is not to be used for flight planning or operations.